Time;durP1;ratioP1;P1;durP2;ratioP2;P2;SDS_P1;SDS_P2;PMS_P1;PMS_P2;Temp;Humidity;BMP_temperature;BMP_pressure;BME280_temperature;BME280_humidity;BME280_pressure;Samples;Min_cycle;Max_cycle;Signal;HPM_P1;HPM_P2
2022/01/05 00:00:35;;;;;;;;;;;6.70;98.40;;;;;;5048945;28;19913;-68
2022/01/05 00:03:01;;;;;;;;;;;6.70;98.40;;;;;;5049387;28;19924;-68
2022/01/05 00:05:26;;;;;;;;;;;6.70;98.40;;;;;;5051893;28;19966;-68
2022/01/05 00:07:52;;;;;;;;;;;6.70;98.40;;;;;;5050655;28;19920;-68
2022/01/05 00:10:18;;;;;;;;;;;6.70;98.40;;;;;;5048416;28;20488;-68
2022/01/05 00:12:43;;;;;;;;;;;6.70;98.30;;;;;;5049669;28;19917;-68
2022/01/05 00:15:09;;;;;;;;;;;6.70;98.40;;;;;;5050582;28;19909;-68
2022/01/05 00:17:34;;;;;;;;;;;6.70;98.40;;;;;;5049920;28;20086;-68
2022/01/05 00:20:00;;;;;;;;;;;6.70;98.40;;;;;;5049561;28;19928;-68
2022/01/05 00:22:25;;;;;;;;;;;6.70;98.30;;;;;;5054770;28;20008;-68
2022/01/05 00:24:51;;;;;;;;;;;6.70;98.30;;;;;;5049364;28;19916;-68
2022/01/05 00:27:16;;;;;;;;;;;6.70;98.40;;;;;;5049473;28;19923;-68
2022/01/05 00:29:42;;;;;;;;;;;6.60;98.30;;;;;;5050469;28;19920;-68
2022/01/05 00:32:08;;;;;;;;;;;6.70;98.40;;;;;;5048146;28;19920;-68
2022/01/05 00:34:34;;;;;;;;;;;6.70;98.30;;;;;;5049483;28;20497;-68
2022/01/05 00:37:00;;;;;;;;;;;6.60;98.30;;;;;;5051427;28;19996;-68
2022/01/05 00:39:25;;;;;;;;;;;6.60;98.30;;;;;;5051764;28;19913;-68
2022/01/05 00:41:51;;;;;;;;;;;6.60;98.40;;;;;;5047290;28;20514;-68
2022/01/05 00:44:18;;;;;;;;;;;6.60;98.40;;;;;;5049707;28;20250;-68
2022/01/05 00:46:44;;;;;;;;;;;6.60;98.40;;;;;;5071778;28;19917;-68
2022/01/05 00:49:10;;;;;;;;;;;6.60;98.40;;;;;;5049229;28;20370;-68
2022/01/05 00:51:35;;;;;;;;;;;6.60;98.40;;;;;;5049406;28;20274;-68
2022/01/05 00:54:01;;;;;;;;;;;6.60;98.40;;;;;;5049911;28;20374;-68
2022/01/05 00:56:26;;;;;;;;;;;6.60;98.40;;;;;;5048324;28;19971;-68
2022/01/05 00:58:52;;;;;;;;;;;6.60;98.40;;;;;;5053374;28;20540;-68
2022/01/05 01:01:17;;;;;;;;;;;6.60;98.30;;;;;;5036958;28;19913;-68
2022/01/05 01:03:43;;;;;;;;;;;6.50;98.30;;;;;;5036562;28;20317;-68
2022/01/05 01:06:08;;;;;;;;;;;6.50;98.30;;;;;;5048453;28;19913;-68
2022/01/05 01:08:34;;;;;;;;;;;6.50;98.30;;;;;;5049495;28;19972;-68
2022/01/05 01:10:59;;;;;;;;;;;6.50;98.30;;;;;;5050045;28;20425;-68
2022/01/05 01:13:25;;;;;;;;;;;6.50;98.30;;;;;;5047713;28;19931;-68
2022/01/05 01:15:51;;;;;;;;;;;6.50;98.30;;;;;;5037960;28;19920;-68
2022/01/05 01:18:17;;;;;;;;;;;6.50;98.30;;;;;;5036559;28;20007;-68
2022/01/05 01:20:43;;;;;;;;;;;6.50;98.30;;;;;;5049089;28;20009;-68
2022/01/05 01:23:09;;;;;;;;;;;6.50;98.30;;;;;;5029929;28;19920;-68
2022/01/05 01:25:35;;;;;;;;;;;6.50;98.20;;;;;;5043700;28;19920;-68
2022/01/05 01:28:00;;;;;;;;;;;6.50;98.30;;;;;;5052896;28;20558;-68
2022/01/05 01:30:26;;;;;;;;;;;6.50;98.30;;;;;;5039027;28;19932;-68
2022/01/05 01:32:51;;;;;;;;;;;6.50;98.20;;;;;;5053620;28;19944;-68
2022/01/05 01:35:17;;;;;;;;;;;6.50;98.30;;;;;;5053278;28;19920;-68
2022/01/05 01:37:42;;;;;;;;;;;6.40;98.30;;;;;;5053383;28;20032;-68
2022/01/05 01:40:08;;;;;;;;;;;6.50;98.30;;;;;;5041550;28;19962;-68
2022/01/05 01:42:34;;;;;;;;;;;6.50;98.30;;;;;;5052940;28;19923;-68
2022/01/05 01:44:59;;;;;;;;;;;6.40;98.20;;;;;;5066240;28;20416;-68
2022/01/05 01:47:25;;;;;;;;;;;6.40;98.20;;;;;;5052768;28;20011;-68
2022/01/05 01:49:50;;;;;;;;;;;6.40;98.20;;;;;;5056171;28;19920;-68
2022/01/05 01:52:16;;;;;;;;;;;6.40;98.20;;;;;;5051585;28;19917;-68
2022/01/05 01:54:42;;;;;;;;;;;6.40;98.20;;;;;;5050048;28;19917;-68
2022/01/05 01:57:08;;;;;;;;;;;6.40;98.20;;;;;;5051954;28;19909;-69
2022/01/05 01:59:33;;;;;;;;;;;6.40;98.20;;;;;;5053088;28;19913;-68
2022/01/05 02:01:59;;;;;;;;;;;6.30;98.20;;;;;;5052677;28;19913;-68
2022/01/05 02:04:25;;;;;;;;;;;6.40;98.20;;;;;;5050230;28;20004;-68
2022/01/05 02:06:51;;;;;;;;;;;6.30;98.10;;;;;;5053197;28;20370;-68
2022/01/05 02:09:17;;;;;;;;;;;6.30;98.10;;;;;;5033987;28;19965;-68
2022/01/05 02:11:42;;;;;;;;;;;6.30;98.00;;;;;;5056975;28;19966;-68
2022/01/05 02:14:08;;;;;;;;;;;6.30;98.00;;;;;;5032374;28;19935;-68
2022/01/05 02:16:38;;;;;;;;;;;6.30;98.00;;;;;;5049048;28;19928;-68
2022/01/05 02:19:03;;;;;;;;;;;6.30;97.90;;;;;;5051972;28;19924;-68
2022/01/05 02:21:30;;;;;;;;;;;6.30;98.00;;;;;;5053314;28;19912;-68
2022/01/05 02:23:56;;;;;;;;;;;6.20;98.00;;;;;;5051887;28;20008;-68
2022/01/05 02:26:21;;;;;;;;;;;6.20;97.90;;;;;;5032205;28;20058;-69
2022/01/05 02:28:47;;;;;;;;;;;6.20;98.00;;;;;;5058195;28;19970;-69
2022/01/05 02:31:13;;;;;;;;;;;6.20;98.00;;;;;;5059844;28;19927;-68
2022/01/05 02:33:39;;;;;;;;;;;6.20;98.00;;;;;;5070119;28;19975;-68
2022/01/05 02:36:05;;;;;;;;;;;6.20;98.10;;;;;;5051541;28;19913;-68
2022/01/05 02:38:30;;;;;;;;;;;6.20;98.10;;;;;;5054140;28;19913;-68
2022/01/05 02:40:56;;;;;;;;;;;6.20;97.90;;;;;;5056951;28;19920;-68
2022/01/05 02:43:21;;;;;;;;;;;6.20;98.10;;;;;;5078025;28;20054;-68
2022/01/05 02:45:47;;;;;;;;;;;6.20;98.00;;;;;;5051975;28;19916;-68
2022/01/05 02:48:13;;;;;;;;;;;6.10;98.00;;;;;;5053637;28;20306;-68
2022/01/05 02:50:39;;;;;;;;;;;6.10;97.90;;;;;;5051273;28;19923;-68
2022/01/05 02:53:04;;;;;;;;;;;6.10;97.90;;;;;;5051000;28;19916;-68
2022/01/05 02:55:30;;;;;;;;;;;6.10;97.80;;;;;;5056049;28;19962;-68
2022/01/05 02:57:55;;;;;;;;;;;6.10;97.90;;;;;;5052343;28;20578;-68
2022/01/05 03:00:21;;;;;;;;;;;6.10;97.80;;;;;;5052277;28;20270;-68
2022/01/05 03:02:46;;;;;;;;;;;6.10;98.00;;;;;;5049027;28;20312;-68
2022/01/05 03:05:12;;;;;;;;;;;6.10;98.00;;;;;;5032057;28;19936;-68
2022/01/05 03:07:41;;;;;;;;;;;6.10;98.00;;;;;;5038194;28;20297;-68
2022/01/05 03:10:07;;;;;;;;;;;6.10;98.00;;;;;;5056975;28;19909;-68
2022/01/05 03:12:33;;;;;;;;;;;6.10;97.90;;;;;;5050475;28;19917;-68
2022/01/05 03:14:58;;;;;;;;;;;6.00;97.80;;;;;;5051074;28;19940;-68
2022/01/05 03:17:24;;;;;;;;;;;6.10;97.90;;;;;;5056844;28;19912;-68
2022/01/05 03:19:49;;;;;;;;;;;6.10;97.90;;;;;;5051876;28;19913;-68
2022/01/05 03:22:15;;;;;;;;;;;6.00;97.80;;;;;;5055343;28;19920;-68
2022/01/05 03:24:40;;;;;;;;;;;6.00;97.80;;;;;;5051941;28;19952;-68
2022/01/05 03:27:06;;;;;;;;;;;6.00;97.80;;;;;;5052354;28;19947;-68
2022/01/05 03:29:31;;;;;;;;;;;6.00;97.80;;;;;;5067529;28;20023;-68
2022/01/05 03:31:57;;;;;;;;;;;6.00;97.70;;;;;;5057336;28;19916;-68
2022/01/05 03:34:22;;;;;;;;;;;5.90;97.50;;;;;;5049210;28;19935;-69
2022/01/05 03:36:48;;;;;;;;;;;6.00;97.70;;;;;;5051850;28;19973;-68
2022/01/05 03:39:14;;;;;;;;;;;5.90;97.70;;;;;;5055322;28;20630;-68
2022/01/05 03:41:39;;;;;;;;;;;5.90;97.50;;;;;;5051363;28;20416;-68
2022/01/05 03:44:05;;;;;;;;;;;5.90;97.60;;;;;;5033355;28;19912;-69
2022/01/05 03:46:31;;;;;;;;;;;5.90;97.60;;;;;;5051347;28;19924;-69
2022/01/05 03:48:56;;;;;;;;;;;5.90;97.60;;;;;;5051811;28;19952;-68
2022/01/05 03:51:22;;;;;;;;;;;5.80;97.50;;;;;;5050152;28;19964;-69
2022/01/05 03:53:47;;;;;;;;;;;5.80;97.50;;;;;;5048357;28;20297;-69
2022/01/05 03:56:13;;;;;;;;;;;5.80;97.60;;;;;;5053908;28;19919;-69
2022/01/05 03:58:38;;;;;;;;;;;5.80;97.50;;;;;;5049451;28;19982;-68
2022/01/05 04:01:04;;;;;;;;;;;5.80;97.30;;;;;;5054780;28;19924;-68
2022/01/05 04:03:30;;;;;;;;;;;5.80;97.50;;;;;;5050542;28;19913;-68
2022/01/05 04:05:55;;;;;;;;;;;5.80;97.40;;;;;;5054689;28;19919;-68
2022/01/05 04:08:21;;;;;;;;;;;5.80;97.40;;;;;;5050601;28;19924;-68
2022/01/05 04:10:46;;;;;;;;;;;5.80;97.40;;;;;;5049729;28;19921;-69
2022/01/05 04:13:13;;;;;;;;;;;5.80;97.40;;;;;;5050567;28;20276;-69
2022/01/05 04:15:38;;;;;;;;;;;5.80;97.30;;;;;;5050426;28;20581;-69
2022/01/05 04:18:04;;;;;;;;;;;5.80;97.20;;;;;;5072365;28;20005;-69
2022/01/05 04:20:29;;;;;;;;;;;5.70;97.20;;;;;;5058610;28;19916;-68
2022/01/05 04:22:55;;;;;;;;;;;5.70;97.30;;;;;;5054632;28;19916;-68
2022/01/05 04:25:20;;;;;;;;;;;5.70;97.30;;;;;;5051949;28;19921;-69
2022/01/05 04:27:46;;;;;;;;;;;5.70;97.10;;;;;;5041441;28;20549;-68
2022/01/05 04:30:12;;;;;;;;;;;5.70;97.20;;;;;;5050663;28;19924;-68
2022/01/05 04:32:38;;;;;;;;;;;5.60;96.90;;;;;;5049351;28;19916;-69
2022/01/05 04:35:03;;;;;;;;;;;5.60;97.10;;;;;;5053462;28;20293;-68
2022/01/05 04:37:31;;;;;;;;;;;5.60;97.10;;;;;;5032016;28;19956;-69
2022/01/05 04:39:57;;;;;;;;;;;5.60;97.00;;;;;;5057691;28;19913;-69
2022/01/05 04:42:24;;;;;;;;;;;5.60;97.00;;;;;;5055189;28;19928;-68
2022/01/05 04:44:50;;;;;;;;;;;5.60;97.00;;;;;;5060063;28;19913;-68
2022/01/05 04:47:15;;;;;;;;;;;5.60;97.00;;;;;;5050432;28;19978;-68
2022/01/05 04:49:41;;;;;;;;;;;5.60;96.90;;;;;;5053132;28;19916;-68
2022/01/05 04:52:07;;;;;;;;;;;5.60;96.90;;;;;;5058988;28;19912;-68
2022/01/05 04:54:32;;;;;;;;;;;5.60;96.90;;;;;;5031892;28;19951;-68
2022/01/05 04:56:58;;;;;;;;;;;5.50;96.90;;;;;;5048082;28;20297;-68
2022/01/05 04:59:23;;;;;;;;;;;5.50;96.90;;;;;;5057253;28;20342;-69
2022/01/05 05:01:49;;;;;;;;;;;5.50;96.80;;;;;;5053784;28;19968;-68
2022/01/05 05:04:14;;;;;;;;;;;5.50;96.90;;;;;;5058312;28;20404;-68
2022/01/05 05:06:40;;;;;;;;;;;5.50;96.80;;;;;;5057779;28;19951;-68
2022/01/05 05:09:06;;;;;;;;;;;5.50;96.80;;;;;;5053486;28;19916;-69
2022/01/05 05:11:31;;;;;;;;;;;5.40;96.80;;;;;;5053655;28;19921;-69
2022/01/05 05:13:57;;;;;;;;;;;5.50;96.80;;;;;;5058501;28;19996;-69
2022/01/05 05:16:22;;;;;;;;;;;5.40;96.70;;;;;;5054466;28;19912;-69
2022/01/05 05:18:48;;;;;;;;;;;5.40;96.80;;;;;;5054355;28;19917;-69
2022/01/05 05:21:13;;;;;;;;;;;5.40;96.80;;;;;;5057884;28;19921;-69
2022/01/05 05:23:39;;;;;;;;;;;5.40;96.90;;;;;;5055076;28;19971;-69
2022/01/05 05:26:04;;;;;;;;;;;5.40;96.90;;;;;;5050320;28;19921;-69
2022/01/05 05:28:30;;;;;;;;;;;5.40;96.80;;;;;;5048105;28;20473;-68
2022/01/05 05:30:55;;;;;;;;;;;5.40;96.80;;;;;;5058412;28;20009;-68
2022/01/05 05:33:21;;;;;;;;;;;5.40;96.90;;;;;;5058773;28;20388;-69
2022/01/05 05:35:46;;;;;;;;;;;5.40;96.80;;;;;;5057867;28;19909;-68
2022/01/05 05:38:12;;;;;;;;;;;5.40;96.80;;;;;;5055162;28;20003;-68
2022/01/05 05:40:38;;;;;;;;;;;5.40;96.80;;;;;;5058050;28;19999;-68
2022/01/05 05:43:04;;;;;;;;;;;5.40;96.80;;;;;;5057086;28;19991;-68
2022/01/05 05:45:29;;;;;;;;;;;5.30;96.70;;;;;;5055653;28;19970;-68
2022/01/05 05:47:55;;;;;;;;;;;5.30;96.70;;;;;;5052199;28;19920;-68
2022/01/05 05:50:21;;;;;;;;;;;5.30;96.70;;;;;;5053734;28;19913;-69
2022/01/05 05:52:47;;;;;;;;;;;5.30;96.60;;;;;;5052527;28;20432;-69
2022/01/05 05:55:12;;;;;;;;;;;5.30;96.60;;;;;;5052351;28;19920;-68
2022/01/05 05:57:38;;;;;;;;;;;5.30;96.60;;;;;;5058023;28;19948;-68
2022/01/05 06:00:04;;;;;;;;;;;5.30;96.50;;;;;;5053957;28;19913;-68
2022/01/05 06:02:30;;;;;;;;;;;5.30;96.40;;;;;;5052668;28;19920;-68
2022/01/05 06:04:55;;;;;;;;;;;5.20;96.60;;;;;;5033974;28;20289;-69
2022/01/05 06:07:21;;;;;;;;;;;5.20;96.40;;;;;;5033403;28;20046;-69
2022/01/05 06:09:46;;;;;;;;;;;5.20;96.50;;;;;;5052938;28;20026;-69
2022/01/05 06:12:12;;;;;;;;;;;5.20;96.50;;;;;;5058390;28;19920;-69
2022/01/05 06:14:37;;;;;;;;;;;5.20;96.50;;;;;;5050077;28;20007;-68
2022/01/05 06:17:03;;;;;;;;;;;5.20;96.50;;;;;;5075526;28;19913;-69
2022/01/05 06:19:28;;;;;;;;;;;5.20;96.50;;;;;;5056978;28;19991;-69
2022/01/05 06:21:54;;;;;;;;;;;5.20;96.30;;;;;;5052911;28;19913;-68
2022/01/05 06:24:19;;;;;;;;;;;5.20;96.50;;;;;;5054587;28;19920;-69
2022/01/05 06:26:45;;;;;;;;;;;5.20;96.60;;;;;;5052456;28;20239;-69
2022/01/05 06:29:13;;;;;;;;;;;5.20;96.60;;;;;;5036660;28;19921;-68
2022/01/05 06:31:39;;;;;;;;;;;5.10;96.50;;;;;;5050489;28;20423;-69
2022/01/05 06:34:05;;;;;;;;;;;5.20;96.50;;;;;;5057186;28;19968;-69
2022/01/05 06:36:30;;;;;;;;;;;5.10;96.50;;;;;;5051072;28;19908;-69
2022/01/05 06:38:56;;;;;;;;;;;5.10;96.50;;;;;;5054742;28;19928;-69
2022/01/05 06:41:21;;;;;;;;;;;5.10;96.60;;;;;;5053838;28;19964;-68
2022/01/05 06:43:47;;;;;;;;;;;5.20;96.70;;;;;;5054951;28;19909;-69
2022/01/05 06:46:12;;;;;;;;;;;5.10;96.60;;;;;;5050156;28;19939;-69
2022/01/05 06:48:38;;;;;;;;;;;5.10;96.60;;;;;;5050640;28;19924;-69
2022/01/05 06:51:03;;;;;;;;;;;5.10;96.70;;;;;;5053334;28;20059;-68
2022/01/05 06:53:29;;;;;;;;;;;5.10;96.70;;;;;;5056299;28;19913;-69
2022/01/05 06:55:54;;;;;;;;;;;5.10;96.70;;;;;;5051524;28;19921;-69
2022/01/05 06:58:20;;;;;;;;;;;5.10;96.70;;;;;;5047000;28;19971;-69
2022/01/05 07:00:45;;;;;;;;;;;5.10;96.60;;;;;;5054977;28;19913;-69
2022/01/05 07:03:11;;;;;;;;;;;5.10;96.70;;;;;;5054496;28;19927;-69
2022/01/05 07:05:38;;;;;;;;;;;5.10;96.40;;;;;;5041272;28;20324;-68
2022/01/05 07:08:04;;;;;;;;;;;5.10;96.80;;;;;;5056184;28;19912;-69
2022/01/05 07:10:29;;;;;;;;;;;5.10;96.80;;;;;;5052460;28;19929;-69
2022/01/05 07:12:55;;;;;;;;;;;5.10;96.80;;;;;;5055541;28;19917;-68
2022/01/05 07:15:20;;;;;;;;;;;5.10;96.70;;;;;;5051883;28;19908;-69
2022/01/05 07:17:46;;;;;;;;;;;5.10;96.80;;;;;;5065580;28;20377;-69
2022/01/05 07:20:11;;;;;;;;;;;5.10;96.50;;;;;;5050461;28;20277;-69
2022/01/05 07:22:37;;;;;;;;;;;5.10;96.60;;;;;;5071470;28;19935;-69
2022/01/05 07:25:03;;;;;;;;;;;5.10;96.60;;;;;;5055801;28;19917;-69
2022/01/05 07:27:29;;;;;;;;;;;5.10;96.70;;;;;;5052773;28;19916;-69
2022/01/05 07:29:54;;;;;;;;;;;5.10;96.50;;;;;;5048500;28;19924;-68
2022/01/05 07:32:20;;;;;;;;;;;5.10;96.60;;;;;;5053514;28;20007;-68
2022/01/05 07:34:45;;;;;;;;;;;5.10;96.50;;;;;;5051678;28;20539;-68
2022/01/05 07:37:11;;;;;;;;;;;5.10;96.60;;;;;;5056275;28;20308;-69
2022/01/05 07:39:37;;;;;;;;;;;5.10;96.60;;;;;;5054501;28;19920;-68
2022/01/05 07:42:03;;;;;;;;;;;5.10;96.60;;;;;;5057489;28;19915;-69
2022/01/05 07:44:28;;;;;;;;;;;5.00;96.50;;;;;;5057800;28;19958;-69
2022/01/05 07:46:54;;;;;;;;;;;5.00;96.60;;;;;;5058284;28;19924;-68
2022/01/05 07:49:19;;;;;;;;;;;5.00;96.50;;;;;;5031001;28;19913;-68
2022/01/05 07:51:45;;;;;;;;;;;5.00;96.40;;;;;;5050765;28;19932;-68
2022/01/05 07:54:10;;;;;;;;;;;5.00;96.50;;;;;;5054062;28;19917;-68
2022/01/05 07:56:36;;;;;;;;;;;5.00;96.50;;;;;;5055474;28;19912;-68
2022/01/05 07:59:01;;;;;;;;;;;5.00;96.70;;;;;;5065961;28;19924;-69
2022/01/05 08:01:27;;;;;;;;;;;5.00;96.60;;;;;;5052051;28;19921;-69
2022/01/05 08:03:52;;;;;;;;;;;5.00;96.60;;;;;;5038300;28;19992;-69
2022/01/05 08:06:18;;;;;;;;;;;5.00;96.70;;;;;;5048300;28;20137;-69
2022/01/05 08:08:44;;;;;;;;;;;5.00;96.70;;;;;;5041688;28;19920;-69
2022/01/05 08:11:10;;;;;;;;;;;5.00;96.40;;;;;;5031023;28;20392;-69
2022/01/05 08:13:35;;;;;;;;;;;5.00;96.80;;;;;;5049050;28;19940;-69
2022/01/05 08:16:01;;;;;;;;;;;5.10;96.80;;;;;;5056383;28;19924;-69
2022/01/05 08:18:26;;;;;;;;;;;5.00;96.70;;;;;;5056031;28;19909;-69
2022/01/05 08:20:52;;;;;;;;;;;5.00;96.50;;;;;;5049141;28;20412;-69
2022/01/05 08:23:18;;;;;;;;;;;5.00;96.80;;;;;;5048244;28;19913;-69
2022/01/05 08:25:44;;;;;;;;;;;5.00;96.70;;;;;;5054997;28;19913;-69
2022/01/05 08:28:11;;;;;;;;;;;5.00;96.70;;;;;;5063217;28;19917;-69
2022/01/05 08:30:37;;;;;;;;;;;5.00;96.80;;;;;;5048018;28;20488;-69
2022/01/05 08:33:03;;;;;;;;;;;5.00;96.40;;;;;;5047811;28;19923;-69
2022/01/05 08:35:29;;;;;;;;;;;5.00;96.60;;;;;;5055982;28;20446;-69
2022/01/05 08:37:54;;;;;;;;;;;5.00;96.80;;;;;;5056890;28;19915;-69
2022/01/05 08:40:20;;;;;;;;;;;5.00;96.60;;;;;;5050709;28;20243;-69
2022/01/05 08:42:46;;;;;;;;;;;5.00;96.80;;;;;;5049788;28;20051;-69
2022/01/05 08:45:12;;;;;;;;;;;5.10;96.50;;;;;;5051578;28;19913;-69
2022/01/05 08:47:38;;;;;;;;;;;5.00;96.60;;;;;;5041850;28;19925;-69
2022/01/05 08:50:04;;;;;;;;;;;5.00;96.70;;;;;;5031254;28;19909;-69
2022/01/05 08:52:29;;;;;;;;;;;5.00;96.80;;;;;;5046053;28;20270;-69
2022/01/05 08:54:55;;;;;;;;;;;5.00;96.70;;;;;;5046287;28;19916;-69
2022/01/05 08:57:21;;;;;;;;;;;5.00;96.80;;;;;;5047628;28;19962;-69
2022/01/05 08:59:47;;;;;;;;;;;5.10;96.80;;;;;;5046783;28;19939;-68
2022/01/05 09:02:15;;;;;;;;;;;5.10;96.80;;;;;;5046527;28;19963;-68
2022/01/05 09:04:41;;;;;;;;;;;5.10;96.80;;;;;;5058229;28;19916;-69
2022/01/05 09:07:06;;;;;;;;;;;5.10;96.70;;;;;;5034004;28;20572;-69
2022/01/05 09:09:32;;;;;;;;;;;5.10;96.80;;;;;;5050005;28;20003;-69
2022/01/05 09:11:57;;;;;;;;;;;5.10;96.90;;;;;;5049915;28;20438;-69
2022/01/05 09:14:23;;;;;;;;;;;5.10;96.60;;;;;;5054126;28;19908;-69
2022/01/05 09:16:48;;;;;;;;;;;5.10;96.80;;;;;;5047641;28;19919;-69
2022/01/05 09:19:14;;;;;;;;;;;5.20;96.70;;;;;;5038689;28;19917;-69
2022/01/05 09:21:40;;;;;;;;;;;5.10;96.70;;;;;;5052328;28;19916;-69
2022/01/05 09:24:05;;;;;;;;;;;5.10;96.80;;;;;;5049567;28;19959;-69
2022/01/05 09:26:31;;;;;;;;;;;5.10;96.70;;;;;;5043017;28;19964;-69
2022/01/05 09:28:57;;;;;;;;;;;5.10;96.80;;;;;;5047389;28;19975;-69
2022/01/05 09:31:22;;;;;;;;;;;5.10;96.80;;;;;;5031493;28;19921;-69
2022/01/05 09:33:48;;;;;;;;;;;5.10;96.90;;;;;;5044922;28;20352;-69
2022/01/05 09:36:21;;;;;;;;;;;5.20;96.50;;;;;;5043198;28;19909;-69
2022/01/05 09:44:05;;;;;;;;;;;5.10;96.80;;;;;;5046790;28;19919;-69
2022/01/05 09:46:32;;;;;;;;;;;5.10;96.70;;;;;;5050271;28;20400;-69
2022/01/05 09:49:02;;;;;;;;;;;5.10;96.70;;;;;;5051218;28;19908;-69
2022/01/05 09:51:30;;;;;;;;;;;5.10;96.70;;;;;;5052877;28;20004;-69
2022/01/05 09:53:56;;;;;;;;;;;5.10;96.80;;;;;;5056303;28;20473;-69
2022/01/05 09:56:21;;;;;;;;;;;5.20;96.90;;;;;;5058254;28;19912;-69
2022/01/05 09:58:47;;;;;;;;;;;5.20;96.80;;;;;;5052819;28;19966;-69
2022/01/05 10:01:12;;;;;;;;;;;5.20;96.70;;;;;;5056869;28;19954;-69
2022/01/05 10:03:38;;;;;;;;;;;5.10;96.50;;;;;;5057460;28;19950;-69
2022/01/05 10:06:03;;;;;;;;;;;5.10;97.00;;;;;;5052634;28;19924;-69
2022/01/05 10:08:29;;;;;;;;;;;5.10;97.10;;;;;;5051030;28;19913;-69
2022/01/05 10:10:54;;;;;;;;;;;5.00;96.90;;;;;;5058626;28;20346;-69
2022/01/05 10:13:20;;;;;;;;;;;5.00;96.90;;;;;;5053140;28;19932;-69
2022/01/05 10:15:46;;;;;;;;;;;5.00;97.10;;;;;;5052218;28;19919;-69
2022/01/05 10:18:14;;;;;;;;;;;5.00;97.20;;;;;;5051399;28;19916;-69
2022/01/05 10:20:54;;;;;;;;;;;5.00;97.10;;;;;;5053249;28;20561;-69
2022/01/05 10:23:32;;;;;;;;;;;5.00;97.20;;;;;;5053074;28;19913;-69
2022/01/05 10:26:16;;;;;;;;;;;5.00;97.30;;;;;;5051515;28;19932;-69
2022/01/05 10:28:42;;;;;;;;;;;5.00;97.30;;;;;;5058894;28;20381;-69
2022/01/05 10:31:13;;;;;;;;;;;5.00;97.20;;;;;;5069926;28;19912;-69
2022/01/05 10:33:38;;;;;;;;;;;4.90;97.10;;;;;;5052861;28;19966;-69
2022/01/05 10:36:04;;;;;;;;;;;5.00;97.20;;;;;;5057521;28;19913;-69
2022/01/05 10:38:29;;;;;;;;;;;5.00;97.30;;;;;;5052412;28;19920;-69
2022/01/05 10:40:55;;;;;;;;;;;5.00;97.30;;;;;;5051001;28;20022;-69
2022/01/05 10:43:20;;;;;;;;;;;5.00;97.00;;;;;;5055704;28;19931;-68
2022/01/05 10:45:47;;;;;;;;;;;5.00;97.30;;;;;;5062646;28;19924;-69
2022/01/05 10:48:12;;;;;;;;;;;5.00;97.20;;;;;;5054554;28;19932;-69
2022/01/05 10:50:38;;;;;;;;;;;5.00;97.40;;;;;;5052528;28;20253;-69
2022/01/05 10:53:04;;;;;;;;;;;5.00;97.40;;;;;;5050948;28;19920;-69
2022/01/05 10:55:31;;;;;;;;;;;5.00;97.20;;;;;;5056796;28;20065;-69
2022/01/05 10:57:56;;;;;;;;;;;5.00;97.20;;;;;;5056174;28;19995;-69
2022/01/05 11:00:34;;;;;;;;;;;5.00;97.30;;;;;;5049865;28;20043;-69
2022/01/05 11:03:00;;;;;;;;;;;5.00;97.30;;;;;;5056540;28;19914;-69
2022/01/05 11:05:26;;;;;;;;;;;5.00;96.90;;;;;;5051630;28;20490;-69
2022/01/05 11:08:05;;;;;;;;;;;5.00;97.30;;;;;;5052428;28;19924;-69
2022/01/05 11:10:30;;;;;;;;;;;5.00;97.10;;;;;;5055668;28;19927;-69
2022/01/05 11:12:56;;;;;;;;;;;5.00;97.20;;;;;;5056243;28;19917;-69
2022/01/05 11:15:21;;;;;;;;;;;5.10;97.40;;;;;;5052820;28;19939;-69
2022/01/05 11:18:08;;;;;;;;;;;5.00;97.20;;;;;;5059696;28;19919;-69
2022/01/05 11:20:33;;;;;;;;;;;5.00;97.20;;;;;;5054309;28;19967;-69
2022/01/05 11:22:59;;;;;;;;;;;5.00;97.40;;;;;;5049506;28;20471;-69
2022/01/05 11:25:25;;;;;;;;;;;5.00;97.40;;;;;;5055323;28;20419;-69
2022/01/05 11:27:50;;;;;;;;;;;5.00;97.30;;;;;;5053381;28;19917;-69
2022/01/05 11:30:16;;;;;;;;;;;5.00;97.50;;;;;;5051470;28;19990;-69
2022/01/05 11:32:42;;;;;;;;;;;5.00;97.40;;;;;;5049294;28;19965;-69
2022/01/05 11:35:07;;;;;;;;;;;5.00;97.40;;;;;;5036334;28;19920;-69
2022/01/05 11:37:34;;;;;;;;;;;5.00;97.50;;;;;;5047857;28;20293;-68
2022/01/05 11:40:02;;;;;;;;;;;5.00;97.20;;;;;;5048564;28;20235;-69
2022/01/05 11:42:33;;;;;;;;;;;5.00;97.40;;;;;;5048030;28;19913;-69
2022/01/05 11:44:59;;;;;;;;;;;4.90;97.40;;;;;;5057031;28;20415;-69
2022/01/05 11:47:26;;;;;;;;;;;5.00;97.40;;;;;;5054267;28;19916;-68
2022/01/05 11:50:14;;;;;;;;;;;5.00;97.40;;;;;;5052907;28;20382;-69
2022/01/05 11:52:52;;;;;;;;;;;5.00;97.50;;;;;;5041858;28;19972;-69
2022/01/05 11:55:19;;;;;;;;;;;5.00;97.40;;;;;;5049760;28;20305;-69
2022/01/05 11:58:04;;;;;;;;;;;5.00;97.40;;;;;;5029918;28;19936;-69
2022/01/05 12:00:29;;;;;;;;;;;5.00;97.30;;;;;;5050068;28;19931;-69
2022/01/05 12:02:55;;;;;;;;;;;5.00;97.30;;;;;;5057141;28;19916;-69
2022/01/05 12:05:20;;;;;;;;;;;5.00;97.60;;;;;;5039704;28;20504;-68
2022/01/05 12:07:47;;;;;;;;;;;5.00;97.50;;;;;;5049668;28;19912;-69
2022/01/05 12:10:21;;;;;;;;;;;5.00;97.50;;;;;;5036051;28;19916;-69
2022/01/05 12:12:56;;;;;;;;;;;5.00;97.50;;;;;;5058375;28;20090;-69
2022/01/05 12:15:42;;;;;;;;;;;5.00;97.50;;;;;;5053499;28;19992;-69
2022/01/05 12:18:07;;;;;;;;;;;5.00;97.50;;;;;;5053271;28;20912;-69
2022/01/05 12:20:37;;;;;;;;;;;5.10;97.60;;;;;;5056386;28;19913;-69
2022/01/05 12:23:25;;;;;;;;;;;5.10;97.50;;;;;;5047290;28;19916;-69
2022/01/05 12:26:07;;;;;;;;;;;5.10;97.50;;;;;;5031332;28;20058;-69
2022/01/05 12:28:35;;;;;;;;;;;5.10;97.50;;;;;;5043579;28;19920;-70
2022/01/05 12:31:01;;;;;;;;;;;5.10;97.50;;;;;;5035588;28;19913;-69
2022/01/05 12:33:40;;;;;;;;;;;5.10;97.50;;;;;;5048649;28;19963;-69
2022/01/05 12:36:05;;;;;;;;;;;5.10;97.40;;;;;;5068553;28;19916;-69
2022/01/05 12:38:36;;;;;;;;;;;5.10;97.50;;;;;;5050003;28;19921;-69
2022/01/05 12:41:20;;;;;;;;;;;5.10;97.60;;;;;;5049757;28;19912;-69
2022/01/05 12:43:45;;;;;;;;;;;5.10;97.70;;;;;;5054421;28;19912;-69
2022/01/05 12:46:11;;;;;;;;;;;5.10;97.50;;;;;;5049094;28;19971;-69
2022/01/05 12:48:39;;;;;;;;;;;5.10;97.60;;;;;;5049095;28;20420;-69
2022/01/05 12:51:23;;;;;;;;;;;5.10;97.60;;;;;;5048528;28;19909;-69
2022/01/05 12:54:07;;;;;;;;;;;5.10;97.60;;;;;;5047921;28;20004;-69
2022/01/05 12:56:35;;;;;;;;;;;5.10;97.70;;;;;;5034346;28;20003;-69
2022/01/05 12:59:01;;;;;;;;;;;5.10;97.60;;;;;;5052213;28;19913;-69
2022/01/05 13:01:28;;;;;;;;;;;5.10;97.70;;;;;;5046608;28;21816;-69
2022/01/05 13:03:54;;;;;;;;;;;5.20;97.50;;;;;;5048064;28;19913;-69
2022/01/05 13:06:19;;;;;;;;;;;5.10;97.70;;;;;;5052039;28;19917;-69
2022/01/05 13:08:48;;;;;;;;;;;5.10;97.60;;;;;;5052771;28;20682;-69
2022/01/05 13:11:15;;;;;;;;;;;5.20;97.60;;;;;;5050491;28;19916;-69
2022/01/05 13:13:42;;;;;;;;;;;5.20;97.70;;;;;;5048772;28;19991;-69
2022/01/05 13:16:08;;;;;;;;;;;5.20;97.70;;;;;;5055041;28;20085;-69
2022/01/05 13:18:34;;;;;;;;;;;5.20;97.60;;;;;;5049974;28;19920;-69
2022/01/05 13:21:01;;;;;;;;;;;5.20;98.00;;;;;;5030099;28;19932;-69
2022/01/05 13:23:26;;;;;;;;;;;5.30;97.70;;;;;;5058128;28;19913;-68
2022/01/05 13:25:52;;;;;;;;;;;5.30;97.60;;;;;;5056247;28;19909;-69
2022/01/05 13:28:17;;;;;;;;;;;5.30;97.70;;;;;;5059523;28;19916;-69
2022/01/05 13:30:45;;;;;;;;;;;5.20;97.60;;;;;;5053471;28;19939;-69
2022/01/05 13:33:13;;;;;;;;;;;5.20;97.60;;;;;;5058842;28;19966;-69
2022/01/05 13:35:39;;;;;;;;;;;5.20;97.80;;;;;;5052335;28;19958;-69
2022/01/05 13:38:06;;;;;;;;;;;5.20;97.70;;;;;;5052480;28;19912;-69
2022/01/05 13:40:33;;;;;;;;;;;5.30;97.80;;;;;;5054367;28;19912;-69
2022/01/05 13:43:03;;;;;;;;;;;5.30;97.70;;;;;;5031633;28;19919;-69
2022/01/05 13:45:36;;;;;;;;;;;5.30;97.80;;;;;;5057759;28;19959;-69
2022/01/05 13:48:06;;;;;;;;;;;5.30;97.70;;;;;;5058859;28;19913;-69
2022/01/05 13:50:34;;;;;;;;;;;5.20;97.80;;;;;;5062597;28;19913;-69
2022/01/05 13:53:01;;;;;;;;;;;5.30;97.90;;;;;;5054027;28;19920;-69
2022/01/05 13:55:34;;;;;;;;;;;5.20;97.80;;;;;;5053347;28;19912;-69
2022/01/05 13:58:18;;;;;;;;;;;5.30;97.80;;;;;;5060357;28;19909;-69
2022/01/05 14:00:45;;;;;;;;;;;5.30;97.80;;;;;;5057398;28;19946;-69
2022/01/05 14:03:24;;;;;;;;;;;5.30;97.80;;;;;;5050892;28;19921;-69
2022/01/05 14:05:50;;;;;;;;;;;5.30;97.90;;;;;;5050239;28;19995;-69
2022/01/05 14:08:16;;;;;;;;;;;5.30;97.80;;;;;;5053684;28;20035;-69
2022/01/05 14:10:41;;;;;;;;;;;5.30;97.90;;;;;;5052854;28;20007;-69
2022/01/05 14:13:07;;;;;;;;;;;5.30;97.80;;;;;;5056430;28;19939;-68
2022/01/05 14:15:33;;;;;;;;;;;5.30;97.90;;;;;;5034929;28;19924;-69
2022/01/05 14:18:08;;;;;;;;;;;5.30;97.80;;;;;;5058060;28;19912;-69
2022/01/05 14:20:35;;;;;;;;;;;5.30;97.90;;;;;;5056473;28;20050;-69
2022/01/05 14:23:05;;;;;;;;;;;5.30;97.90;;;;;;5051201;28;20358;-69
2022/01/05 14:25:35;;;;;;;;;;;5.40;97.90;;;;;;5052068;28;19919;-69
2022/01/05 14:28:29;;;;;;;;;;;5.40;98.10;;;;;;5052514;28;19936;-69
2022/01/05 14:30:59;;;;;;;;;;;5.30;98.00;;;;;;5038602;28;20446;-69
2022/01/05 14:33:31;;;;;;;;;;;5.40;97.90;;;;;;5052184;28;19919;-69